sensor_id;sensor_type;location;lat;lon;timestamp;P1;durP1;ratioP1;P2;durP2;ratioP2
16199;SDS011;8207;52.494;4.654;2023-06-26T00:01:09;7.70;;;5.78;;
16199;SDS011;8207;52.494;4.654;2023-06-26T00:03:36;5.68;;;5.13;;
16199;SDS011;8207;52.494;4.654;2023-06-26T00:06:03;6.28;;;5.43;;
16199;SDS011;8207;52.494;4.654;2023-06-26T00:08:30;6.18;;;5.57;;
16199;SDS011;8207;52.494;4.654;2023-06-26T00:10:57;6.25;;;5.63;;
16199;SDS011;8207;52.494;4.654;2023-06-26T00:13:25;5.68;;;5.15;;
16199;SDS011;8207;52.494;4.654;2023-06-26T00:15:53;5.55;;;5.05;;
16199;SDS011;8207;52.494;4.654;2023-06-26T00:18:19;6.93;;;5.60;;
16199;SDS011;8207;52.494;4.654;2023-06-26T00:20:48;6.35;;;5.28;;
16199;SDS011;8207;52.494;4.654;2023-06-26T00:23:16;7.75;;;5.47;;
16199;SDS011;8207;52.494;4.654;2023-06-26T00:25:43;6.97;;;6.10;;
16199;SDS011;8207;52.494;4.654;2023-06-26T00:28:10;10.73;;;5.82;;
16199;SDS011;8207;52.494;4.654;2023-06-26T00:30:39;6.25;;;5.65;;
16199;SDS011;8207;52.494;4.654;2023-06-26T00:33:05;9.70;;;6.65;;
16199;SDS011;8207;52.494;4.654;2023-06-26T00:35:32;9.85;;;6.05;;
16199;SDS011;8207;52.494;4.654;2023-06-26T00:38:00;6.70;;;5.97;;
16199;SDS011;8207;52.494;4.654;2023-06-26T00:40:27;8.85;;;6.30;;
16199;SDS011;8207;52.494;4.654;2023-06-26T00:42:55;7.18;;;5.60;;
16199;SDS011;8207;52.494;4.654;2023-06-26T00:45:22;7.65;;;5.78;;
16199;SDS011;8207;52.494;4.654;2023-06-26T00:47:50;9.10;;;6.50;;
16199;SDS011;8207;52.494;4.654;2023-06-26T00:50:18;8.77;;;5.93;;
16199;SDS011;8207;52.494;4.654;2023-06-26T00:52:45;13.40;;;5.88;;
16199;SDS011;8207;52.494;4.654;2023-06-26T00:55:13;8.82;;;5.97;;
16199;SDS011;8207;52.494;4.654;2023-06-26T00:57:40;7.55;;;5.72;;
16199;SDS011;8207;52.494;4.654;2023-06-26T01:00:08;9.52;;;6.00;;
16199;SDS011;8207;52.494;4.654;2023-06-26T01:02:36;11.30;;;6.00;;
16199;SDS011;8207;52.494;4.654;2023-06-26T01:05:05;9.95;;;6.50;;
16199;SDS011;8207;52.494;4.654;2023-06-26T01:07:35;11.57;;;6.32;;
16199;SDS011;8207;52.494;4.654;2023-06-26T01:10:03;11.05;;;6.05;;
16199;SDS011;8207;52.494;4.654;2023-06-26T01:12:31;12.20;;;6.72;;
16199;SDS011;8207;52.494;4.654;2023-06-26T01:14:59;9.98;;;6.40;;
16199;SDS011;8207;52.494;4.654;2023-06-26T01:17:26;11.10;;;6.72;;
16199;SDS011;8207;52.494;4.654;2023-06-26T01:19:58;13.20;;;6.93;;
16199;SDS011;8207;52.494;4.654;2023-06-26T01:22:28;13.77;;;7.13;;
16199;SDS011;8207;52.494;4.654;2023-06-26T01:25:12;11.85;;;6.68;;
16199;SDS011;8207;52.494;4.654;2023-06-26T01:27:45;15.45;;;6.65;;
16199;SDS011;8207;52.494;4.654;2023-06-26T01:30:15;17.00;;;8.18;;
16199;SDS011;8207;52.494;4.654;2023-06-26T01:32:43;17.42;;;7.78;;
16199;SDS011;8207;52.494;4.654;2023-06-26T01:35:11;16.80;;;7.95;;
16199;SDS011;8207;52.494;4.654;2023-06-26T01:37:38;12.75;;;7.78;;
16199;SDS011;8207;52.494;4.654;2023-06-26T01:40:06;18.15;;;8.45;;
16199;SDS011;8207;52.494;4.654;2023-06-26T01:42:34;19.48;;;8.95;;
16199;SDS011;8207;52.494;4.654;2023-06-26T01:45:05;15.00;;;8.63;;
16199;SDS011;8207;52.494;4.654;2023-06-26T01:47:36;15.45;;;8.07;;
16199;SDS011;8207;52.494;4.654;2023-06-26T01:50:09;16.30;;;8.18;;
16199;SDS011;8207;52.494;4.654;2023-06-26T01:52:40;13.30;;;6.82;;
16199;SDS011;8207;52.494;4.654;2023-06-26T01:55:12;16.98;;;8.20;;
16199;SDS011;8207;52.494;4.654;2023-06-26T01:57:45;18.42;;;7.68;;
16199;SDS011;8207;52.494;4.654;2023-06-26T02:00:15;15.63;;;7.57;;
16199;SDS011;8207;52.494;4.654;2023-06-26T02:02:44;20.02;;;7.00;;
16199;SDS011;8207;52.494;4.654;2023-06-26T02:05:11;18.02;;;7.55;;
16199;SDS011;8207;52.494;4.654;2023-06-26T02:07:38;14.35;;;6.82;;
16199;SDS011;8207;52.494;4.654;2023-06-26T02:10:07;20.30;;;7.95;;
16199;SDS011;8207;52.494;4.654;2023-06-26T02:12:35;15.02;;;6.68;;
16199;SDS011;8207;52.494;4.654;2023-06-26T02:15:03;16.00;;;6.80;;
16199;SDS011;8207;52.494;4.654;2023-06-26T02:17:32;16.42;;;7.60;;
16199;SDS011;8207;52.494;4.654;2023-06-26T02:19:59;13.15;;;6.18;;
16199;SDS011;8207;52.494;4.654;2023-06-26T02:22:26;15.73;;;6.70;;
16199;SDS011;8207;52.494;4.654;2023-06-26T02:24:53;16.50;;;7.18;;
16199;SDS011;8207;52.494;4.654;2023-06-26T02:27:20;16.70;;;6.93;;
16199;SDS011;8207;52.494;4.654;2023-06-26T02:29:47;12.07;;;7.15;;
16199;SDS011;8207;52.494;4.654;2023-06-26T02:32:15;14.98;;;7.40;;
16199;SDS011;8207;52.494;4.654;2023-06-26T02:34:43;17.05;;;6.55;;
16199;SDS011;8207;52.494;4.654;2023-06-26T02:37:10;14.30;;;6.47;;
16199;SDS011;8207;52.494;4.654;2023-06-26T02:39:37;11.60;;;6.20;;
16199;SDS011;8207;52.494;4.654;2023-06-26T02:42:04;17.45;;;7.43;;
16199;SDS011;8207;52.494;4.654;2023-06-26T02:44:31;12.07;;;6.97;;
16199;SDS011;8207;52.494;4.654;2023-06-26T02:46:58;11.95;;;5.85;;
16199;SDS011;8207;52.494;4.654;2023-06-26T02:49:25;10.77;;;5.35;;
16199;SDS011;8207;52.494;4.654;2023-06-26T02:51:53;8.85;;;5.55;;
16199;SDS011;8207;52.494;4.654;2023-06-26T02:54:21;9.90;;;5.28;;
16199;SDS011;8207;52.494;4.654;2023-06-26T02:56:48;11.90;;;5.88;;
16199;SDS011;8207;52.494;4.654;2023-06-26T02:59:15;7.50;;;4.63;;
16199;SDS011;8207;52.494;4.654;2023-06-26T03:01:42;9.77;;;5.10;;
16199;SDS011;8207;52.494;4.654;2023-06-26T03:04:09;7.53;;;4.47;;
16199;SDS011;8207;52.494;4.654;2023-06-26T03:06:36;11.00;;;4.30;;
16199;SDS011;8207;52.494;4.654;2023-06-26T03:09:05;6.50;;;4.45;;
16199;SDS011;8207;52.494;4.654;2023-06-26T03:11:32;8.93;;;4.63;;
16199;SDS011;8207;52.494;4.654;2023-06-26T03:13:59;8.68;;;4.30;;
16199;SDS011;8207;52.494;4.654;2023-06-26T03:16:26;9.80;;;3.90;;
16199;SDS011;8207;52.494;4.654;2023-06-26T03:18:53;6.82;;;4.55;;
16199;SDS011;8207;52.494;4.654;2023-06-26T03:21:19;10.05;;;4.20;;
16199;SDS011;8207;52.494;4.654;2023-06-26T03:23:47;6.57;;;4.25;;
16199;SDS011;8207;52.494;4.654;2023-06-26T03:26:15;8.90;;;3.95;;
16199;SDS011;8207;52.494;4.654;2023-06-26T03:28:42;7.38;;;4.65;;
16199;SDS011;8207;52.494;4.654;2023-06-26T03:31:09;8.50;;;4.40;;
16199;SDS011;8207;52.494;4.654;2023-06-26T03:33:36;7.68;;;4.40;;
16199;SDS011;8207;52.494;4.654;2023-06-26T03:36:04;9.15;;;4.68;;
16199;SDS011;8207;52.494;4.654;2023-06-26T03:38:31;8.25;;;4.03;;
16199;SDS011;8207;52.494;4.654;2023-06-26T03:40:58;7.72;;;3.95;;
16199;SDS011;8207;52.494;4.654;2023-06-26T03:43:28;7.28;;;4.13;;
16199;SDS011;8207;52.494;4.654;2023-06-26T03:45:55;8.02;;;4.22;;
16199;SDS011;8207;52.494;4.654;2023-06-26T03:48:22;8.80;;;4.65;;
16199;SDS011;8207;52.494;4.654;2023-06-26T03:50:49;8.10;;;4.30;;
16199;SDS011;8207;52.494;4.654;2023-06-26T03:53:17;8.90;;;4.65;;
16199;SDS011;8207;52.494;4.654;2023-06-26T03:55:45;9.70;;;4.60;;
16199;SDS011;8207;52.494;4.654;2023-06-26T03:58:12;7.35;;;3.97;;
16199;SDS011;8207;52.494;4.654;2023-06-26T04:00:40;12.40;;;4.63;;
16199;SDS011;8207;52.494;4.654;2023-06-26T04:03:07;8.10;;;4.63;;
16199;SDS011;8207;52.494;4.654;2023-06-26T04:05:34;7.90;;;4.05;;
16199;SDS011;8207;52.494;4.654;2023-06-26T04:08:01;8.38;;;3.67;;
16199;SDS011;8207;52.494;4.654;2023-06-26T04:10:28;10.40;;;4.72;;
16199;SDS011;8207;52.494;4.654;2023-06-26T04:12:55;12.07;;;4.03;;
16199;SDS011;8207;52.494;4.654;2023-06-26T04:15:22;7.45;;;3.95;;
16199;SDS011;8207;52.494;4.654;2023-06-26T04:17:50;9.98;;;4.57;;
16199;SDS011;8207;52.494;4.654;2023-06-26T04:20:17;8.55;;;4.13;;
16199;SDS011;8207;52.494;4.654;2023-06-26T04:22:44;6.95;;;3.88;;
16199;SDS011;8207;52.494;4.654;2023-06-26T04:25:11;8.43;;;3.88;;
16199;SDS011;8207;52.494;4.654;2023-06-26T04:27:38;9.60;;;3.58;;
16199;SDS011;8207;52.494;4.654;2023-06-26T04:30:05;7.15;;;3.67;;
16199;SDS011;8207;52.494;4.654;2023-06-26T04:32:33;9.18;;;3.42;;
16199;SDS011;8207;52.494;4.654;2023-06-26T04:35:02;9.15;;;3.65;;
16199;SDS011;8207;52.494;4.654;2023-06-26T04:37:29;7.72;;;3.50;;
16199;SDS011;8207;52.494;4.654;2023-06-26T04:39:56;8.40;;;3.83;;
16199;SDS011;8207;52.494;4.654;2023-06-26T04:42:23;10.45;;;4.38;;
16199;SDS011;8207;52.494;4.654;2023-06-26T04:44:50;8.65;;;3.75;;
16199;SDS011;8207;52.494;4.654;2023-06-26T04:47:17;7.22;;;3.55;;
16199;SDS011;8207;52.494;4.654;2023-06-26T04:49:44;6.90;;;3.60;;
16199;SDS011;8207;52.494;4.654;2023-06-26T04:52:13;5.07;;;3.38;;
16199;SDS011;8207;52.494;4.654;2023-06-26T04:54:40;7.13;;;3.25;;
16199;SDS011;8207;52.494;4.654;2023-06-26T04:57:07;5.28;;;3.00;;
16199;SDS011;8207;52.494;4.654;2023-06-26T04:59:36;7.95;;;3.40;;
16199;SDS011;8207;52.494;4.654;2023-06-26T05:02:03;6.85;;;3.28;;
16199;SDS011;8207;52.494;4.654;2023-06-26T05:04:31;7.78;;;3.05;;
16199;SDS011;8207;52.494;4.654;2023-06-26T05:06:58;8.52;;;3.83;;
16199;SDS011;8207;52.494;4.654;2023-06-26T05:09:26;9.68;;;3.53;;
16199;SDS011;8207;52.494;4.654;2023-06-26T05:11:53;6.88;;;3.70;;
16199;SDS011;8207;52.494;4.654;2023-06-26T05:14:20;12.65;;;4.70;;
16199;SDS011;8207;52.494;4.654;2023-06-26T05:16:47;8.52;;;4.20;;
16199;SDS011;8207;52.494;4.654;2023-06-26T05:19:15;8.80;;;3.63;;
16199;SDS011;8207;52.494;4.654;2023-06-26T05:21:42;7.10;;;3.65;;
16199;SDS011;8207;52.494;4.654;2023-06-26T05:24:09;9.48;;;4.03;;
16199;SDS011;8207;52.494;4.654;2023-06-26T05:26:40;9.75;;;3.80;;
16199;SDS011;8207;52.494;4.654;2023-06-26T05:29:07;5.90;;;3.63;;
16199;SDS011;8207;52.494;4.654;2023-06-26T05:31:35;6.45;;;3.38;;
16199;SDS011;8207;52.494;4.654;2023-06-26T05:34:06;6.55;;;3.08;;
16199;SDS011;8207;52.494;4.654;2023-06-26T05:36:36;8.40;;;3.50;;
16199;SDS011;8207;52.494;4.654;2023-06-26T05:39:05;8.43;;;3.75;;
16199;SDS011;8207;52.494;4.654;2023-06-26T05:41:32;6.90;;;3.40;;
16199;SDS011;8207;52.494;4.654;2023-06-26T05:44:01;7.57;;;3.65;;
16199;SDS011;8207;52.494;4.654;2023-06-26T05:46:28;6.57;;;3.13;;
16199;SDS011;8207;52.494;4.654;2023-06-26T05:48:55;7.03;;;3.33;;
16199;SDS011;8207;52.494;4.654;2023-06-26T05:51:23;10.23;;;3.50;;
16199;SDS011;8207;52.494;4.654;2023-06-26T05:53:50;8.07;;;3.08;;
16199;SDS011;8207;52.494;4.654;2023-06-26T05:56:18;8.98;;;3.13;;
16199;SDS011;8207;52.494;4.654;2023-06-26T05:58:45;6.80;;;3.00;;
16199;SDS011;8207;52.494;4.654;2023-06-26T06:01:14;12.73;;;3.20;;
16199;SDS011;8207;52.494;4.654;2023-06-26T06:03:41;6.82;;;2.80;;
16199;SDS011;8207;52.494;4.654;2023-06-26T06:06:08;9.38;;;3.05;;
16199;SDS011;8207;52.494;4.654;2023-06-26T06:08:35;6.97;;;2.53;;
16199;SDS011;8207;52.494;4.654;2023-06-26T06:11:02;7.75;;;2.80;;
16199;SDS011;8207;52.494;4.654;2023-06-26T06:13:29;5.93;;;3.03;;
16199;SDS011;8207;52.494;4.654;2023-06-26T06:15:55;8.40;;;3.10;;
16199;SDS011;8207;52.494;4.654;2023-06-26T06:18:24;7.57;;;3.20;;
16199;SDS011;8207;52.494;4.654;2023-06-26T06:20:51;8.18;;;3.10;;
16199;SDS011;8207;52.494;4.654;2023-06-26T06:23:27;7.43;;;3.22;;
16199;SDS011;8207;52.494;4.654;2023-06-26T06:25:54;5.40;;;2.30;;
16199;SDS011;8207;52.494;4.654;2023-06-26T06:28:21;6.60;;;2.95;;
16199;SDS011;8207;52.494;4.654;2023-06-26T06:30:48;8.05;;;2.63;;
16199;SDS011;8207;52.494;4.654;2023-06-26T06:33:15;6.97;;;3.10;;
16199;SDS011;8207;52.494;4.654;2023-06-26T06:35:43;8.38;;;2.58;;
16199;SDS011;8207;52.494;4.654;2023-06-26T06:38:10;8.95;;;2.88;;
16199;SDS011;8207;52.494;4.654;2023-06-26T06:40:37;8.20;;;3.00;;
16199;SDS011;8207;52.494;4.654;2023-06-26T06:43:04;6.38;;;2.50;;
16199;SDS011;8207;52.494;4.654;2023-06-26T06:45:31;8.07;;;3.13;;
16199;SDS011;8207;52.494;4.654;2023-06-26T06:47:58;5.55;;;2.70;;
16199;SDS011;8207;52.494;4.654;2023-06-26T06:50:25;9.52;;;2.75;;
16199;SDS011;8207;52.494;4.654;2023-06-26T06:52:53;7.20;;;2.28;;
16199;SDS011;8207;52.494;4.654;2023-06-26T06:55:20;7.38;;;2.42;;
16199;SDS011;8207;52.494;4.654;2023-06-26T06:57:49;8.68;;;2.17;;
16199;SDS011;8207;52.494;4.654;2023-06-26T07:00:16;9.38;;;2.58;;
16199;SDS011;8207;52.494;4.654;2023-06-26T07:02:44;7.35;;;2.95;;
16199;SDS011;8207;52.494;4.654;2023-06-26T07:05:12;4.75;;;2.30;;
16199;SDS011;8207;52.494;4.654;2023-06-26T07:07:39;8.55;;;2.42;;
16199;SDS011;8207;52.494;4.654;2023-06-26T07:10:08;7.78;;;2.42;;
16199;SDS011;8207;52.494;4.654;2023-06-26T07:12:37;9.50;;;2.10;;
16199;SDS011;8207;52.494;4.654;2023-06-26T07:15:05;9.27;;;2.38;;
16199;SDS011;8207;52.494;4.654;2023-06-26T07:17:33;5.65;;;1.95;;
16199;SDS011;8207;52.494;4.654;2023-06-26T07:20:00;8.57;;;2.33;;
16199;SDS011;8207;52.494;4.654;2023-06-26T07:22:31;5.35;;;2.10;;
16199;SDS011;8207;52.494;4.654;2023-06-26T07:24:58;11.25;;;2.80;;
16199;SDS011;8207;52.494;4.654;2023-06-26T07:27:27;5.93;;;2.35;;
16199;SDS011;8207;52.494;4.654;2023-06-26T07:29:54;7.43;;;2.33;;
16199;SDS011;8207;52.494;4.654;2023-06-26T07:32:20;6.03;;;1.95;;
16199;SDS011;8207;52.494;4.654;2023-06-26T07:34:49;6.30;;;2.42;;
16199;SDS011;8207;52.494;4.654;2023-06-26T07:37:16;8.85;;;2.15;;
16199;SDS011;8207;52.494;4.654;2023-06-26T07:39:44;8.18;;;2.10;;
16199;SDS011;8207;52.494;4.654;2023-06-26T07:42:11;6.65;;;2.22;;
16199;SDS011;8207;52.494;4.654;2023-06-26T07:44:39;10.50;;;1.90;;
16199;SDS011;8207;52.494;4.654;2023-06-26T07:47:07;6.43;;;2.17;;
16199;SDS011;8207;52.494;4.654;2023-06-26T07:49:34;7.75;;;2.72;;
16199;SDS011;8207;52.494;4.654;2023-06-26T07:52:01;7.88;;;2.65;;
16199;SDS011;8207;52.494;4.654;2023-06-26T07:54:28;4.68;;;1.75;;
16199;SDS011;8207;52.494;4.654;2023-06-26T07:56:55;6.60;;;1.90;;
16199;SDS011;8207;52.494;4.654;2023-06-26T07:59:24;7.55;;;2.35;;
16199;SDS011;8207;52.494;4.654;2023-06-26T08:01:54;7.65;;;2.20;;
16199;SDS011;8207;52.494;4.654;2023-06-26T08:04:22;5.63;;;1.80;;
16199;SDS011;8207;52.494;4.654;2023-06-26T08:06:51;7.85;;;2.83;;
16199;SDS011;8207;52.494;4.654;2023-06-26T08:09:20;8.40;;;2.05;;
16199;SDS011;8207;52.494;4.654;2023-06-26T08:11:48;9.10;;;2.00;;
16199;SDS011;8207;52.494;4.654;2023-06-26T08:14:15;9.52;;;2.55;;
16199;SDS011;8207;52.494;4.654;2023-06-26T08:16:43;7.15;;;2.20;;
16199;SDS011;8207;52.494;4.654;2023-06-26T08:19:12;5.95;;;2.33;;
16199;SDS011;8207;52.494;4.654;2023-06-26T08:21:40;5.75;;;1.90;;
16199;SDS011;8207;52.494;4.654;2023-06-26T08:24:07;4.35;;;1.88;;
16199;SDS011;8207;52.494;4.654;2023-06-26T08:26:34;6.10;;;1.92;;
16199;SDS011;8207;52.494;4.654;2023-06-26T08:29:02;7.95;;;2.45;;
16199;SDS011;8207;52.494;4.654;2023-06-26T08:31:32;6.05;;;1.85;;
16199;SDS011;8207;52.494;4.654;2023-06-26T08:34:00;6.65;;;2.08;;
16199;SDS011;8207;52.494;4.654;2023-06-26T08:36:28;6.35;;;2.30;;
16199;SDS011;8207;52.494;4.654;2023-06-26T08:38:55;10.18;;;2.20;;
16199;SDS011;8207;52.494;4.654;2023-06-26T08:41:22;6.45;;;2.00;;
16199;SDS011;8207;52.494;4.654;2023-06-26T08:43:50;4.40;;;1.70;;
16199;SDS011;8207;52.494;4.654;2023-06-26T08:46:18;7.15;;;2.35;;
16199;SDS011;8207;52.494;4.654;2023-06-26T08:48:48;7.43;;;2.70;;
16199;SDS011;8207;52.494;4.654;2023-06-26T08:51:21;8.68;;;2.40;;
16199;SDS011;8207;52.494;4.654;2023-06-26T08:53:52;9.90;;;2.17;;
16199;SDS011;8207;52.494;4.654;2023-06-26T08:56:23;6.63;;;1.92;;
16199;SDS011;8207;52.494;4.654;2023-06-26T08:58:51;8.30;;;2.30;;
16199;SDS011;8207;52.494;4.654;2023-06-26T09:01:18;6.40;;;2.20;;
16199;SDS011;8207;52.494;4.654;2023-06-26T09:03:46;7.40;;;1.98;;
16199;SDS011;8207;52.494;4.654;2023-06-26T09:06:13;7.72;;;2.08;;
16199;SDS011;8207;52.494;4.654;2023-06-26T09:08:40;6.15;;;2.00;;
16199;SDS011;8207;52.494;4.654;2023-06-26T09:11:09;7.38;;;2.20;;
16199;SDS011;8207;52.494;4.654;2023-06-26T09:13:36;7.57;;;2.25;;
16199;SDS011;8207;52.494;4.654;2023-06-26T09:16:04;9.80;;;2.70;;
16199;SDS011;8207;52.494;4.654;2023-06-26T09:18:33;5.10;;;1.95;;
16199;SDS011;8207;52.494;4.654;2023-06-26T09:21:00;7.95;;;2.05;;
16199;SDS011;8207;52.494;4.654;2023-06-26T09:23:32;6.22;;;2.03;;
16199;SDS011;8207;52.494;4.654;2023-06-26T09:25:59;7.55;;;2.10;;
16199;SDS011;8207;52.494;4.654;2023-06-26T09:28:30;6.60;;;2.20;;
16199;SDS011;8207;52.494;4.654;2023-06-26T09:31:00;7.63;;;1.95;;
16199;SDS011;8207;52.494;4.654;2023-06-26T09:33:32;10.20;;;2.15;;
16199;SDS011;8207;52.494;4.654;2023-06-26T09:36:01;6.57;;;2.08;;
16199;SDS011;8207;52.494;4.654;2023-06-26T09:38:30;8.85;;;2.20;;
16199;SDS011;8207;52.494;4.654;2023-06-26T09:40:57;8.68;;;2.35;;
16199;SDS011;8207;52.494;4.654;2023-06-26T09:43:24;9.50;;;2.33;;
16199;SDS011;8207;52.494;4.654;2023-06-26T09:45:53;7.22;;;2.30;;
16199;SDS011;8207;52.494;4.654;2023-06-26T09:48:20;6.60;;;2.13;;
16199;SDS011;8207;52.494;4.654;2023-06-26T09:50:48;10.85;;;2.03;;
16199;SDS011;8207;52.494;4.654;2023-06-26T09:53:15;4.57;;;1.90;;
16199;SDS011;8207;52.494;4.654;2023-06-26T09:55:43;7.03;;;2.13;;
16199;SDS011;8207;52.494;4.654;2023-06-26T09:58:12;6.93;;;2.47;;
16199;SDS011;8207;52.494;4.654;2023-06-26T10:00:40;7.68;;;1.92;;
16199;SDS011;8207;52.494;4.654;2023-06-26T10:03:09;8.35;;;1.92;;
16199;SDS011;8207;52.494;4.654;2023-06-26T10:05:37;4.55;;;1.90;;
16199;SDS011;8207;52.494;4.654;2023-06-26T10:08:04;7.95;;;2.00;;
16199;SDS011;8207;52.494;4.654;2023-06-26T10:10:33;8.10;;;2.20;;
16199;SDS011;8207;52.494;4.654;2023-06-26T10:13:04;10.65;;;2.03;;
16199;SDS011;8207;52.494;4.654;2023-06-26T10:15:34;6.35;;;1.85;;
16199;SDS011;8207;52.494;4.654;2023-06-26T10:18:02;8.68;;;2.40;;
16199;SDS011;8207;52.494;4.654;2023-06-26T10:20:31;4.95;;;1.60;;
16199;SDS011;8207;52.494;4.654;2023-06-26T10:23:00;5.70;;;1.65;;
16199;SDS011;8207;52.494;4.654;2023-06-26T10:25:28;8.50;;;2.13;;
16199;SDS011;8207;52.494;4.654;2023-06-26T10:27:58;5.35;;;1.83;;
16199;SDS011;8207;52.494;4.654;2023-06-26T10:30:29;6.90;;;2.40;;
16199;SDS011;8207;52.494;4.654;2023-06-26T10:32:59;9.48;;;2.25;;
16199;SDS011;8207;52.494;4.654;2023-06-26T10:35:27;7.43;;;1.80;;
16199;SDS011;8207;52.494;4.654;2023-06-26T10:38:01;8.43;;;2.25;;
16199;SDS011;8207;52.494;4.654;2023-06-26T10:40:39;5.90;;;1.90;;
16199;SDS011;8207;52.494;4.654;2023-06-26T10:43:10;7.78;;;2.33;;
16199;SDS011;8207;52.494;4.654;2023-06-26T10:45:42;8.23;;;2.22;;
16199;SDS011;8207;52.494;4.654;2023-06-26T10:48:12;9.73;;;2.08;;
16199;SDS011;8207;52.494;4.654;2023-06-26T10:50:42;7.72;;;1.65;;
16199;SDS011;8207;52.494;4.654;2023-06-26T10:53:22;7.15;;;2.30;;
16199;SDS011;8207;52.494;4.654;2023-06-26T10:55:54;4.80;;;1.73;;
16199;SDS011;8207;52.494;4.654;2023-06-26T10:58:32;8.15;;;2.05;;
16199;SDS011;8207;52.494;4.654;2023-06-26T11:01:17;5.50;;;2.03;;
16199;SDS011;8207;52.494;4.654;2023-06-26T11:03:47;7.80;;;2.00;;
16199;SDS011;8207;52.494;4.654;2023-06-26T11:06:17;6.07;;;1.92;;
16199;SDS011;8207;52.494;4.654;2023-06-26T11:08:47;7.75;;;1.90;;
16199;SDS011;8207;52.494;4.654;2023-06-26T11:11:15;7.05;;;2.08;;
16199;SDS011;8207;52.494;4.654;2023-06-26T11:13:43;7.80;;;2.10;;
16199;SDS011;8207;52.494;4.654;2023-06-26T11:16:12;6.38;;;2.00;;
16199;SDS011;8207;52.494;4.654;2023-06-26T11:18:39;5.75;;;2.38;;
16199;SDS011;8207;52.494;4.654;2023-06-26T11:21:07;9.93;;;2.25;;
16199;SDS011;8207;52.494;4.654;2023-06-26T11:23:35;7.47;;;2.25;;
16199;SDS011;8207;52.494;4.654;2023-06-26T11:26:17;5.85;;;2.35;;
16199;SDS011;8207;52.494;4.654;2023-06-26T11:28:49;6.65;;;1.98;;
16199;SDS011;8207;52.494;4.654;2023-06-26T11:31:24;4.70;;;1.65;;
16199;SDS011;8207;52.494;4.654;2023-06-26T11:33:52;4.88;;;1.70;;
16199;SDS011;8207;52.494;4.654;2023-06-26T11:36:19;5.43;;;2.00;;
16199;SDS011;8207;52.494;4.654;2023-06-26T11:38:52;5.43;;;1.70;;
16199;SDS011;8207;52.494;4.654;2023-06-26T11:41:21;7.65;;;2.72;;
16199;SDS011;8207;52.494;4.654;2023-06-26T11:43:49;5.15;;;1.80;;
16199;SDS011;8207;52.494;4.654;2023-06-26T11:46:16;5.60;;;2.00;;
16199;SDS011;8207;52.494;4.654;2023-06-26T11:48:44;4.70;;;1.80;;
16199;SDS011;8207;52.494;4.654;2023-06-26T11:51:12;6.63;;;1.75;;
16199;SDS011;8207;52.494;4.654;2023-06-26T11:53:39;7.43;;;1.77;;
16199;SDS011;8207;52.494;4.654;2023-06-26T11:56:08;7.32;;;1.80;;
16199;SDS011;8207;52.494;4.654;2023-06-26T11:58:37;6.35;;;1.95;;
16199;SDS011;8207;52.494;4.654;2023-06-26T12:01:22;8.80;;;1.70;;
16199;SDS011;8207;52.494;4.654;2023-06-26T12:03:50;5.68;;;1.92;;
16199;SDS011;8207;52.494;4.654;2023-06-26T12:06:17;5.78;;;2.20;;
16199;SDS011;8207;52.494;4.654;2023-06-26T12:08:44;5.57;;;2.00;;
16199;SDS011;8207;52.494;4.654;2023-06-26T12:11:12;4.93;;;2.25;;
16199;SDS011;8207;52.494;4.654;2023-06-26T12:13:41;5.72;;;1.83;;
16199;SDS011;8207;52.494;4.654;2023-06-26T12:16:08;4.70;;;1.85;;
16199;SDS011;8207;52.494;4.654;2023-06-26T12:18:35;4.70;;;1.35;;
16199;SDS011;8207;52.494;4.654;2023-06-26T12:21:02;5.47;;;1.92;;
16199;SDS011;8207;52.494;4.654;2023-06-26T12:23:32;5.07;;;1.98;;
16199;SDS011;8207;52.494;4.654;2023-06-26T12:26:15;5.63;;;1.63;;
16199;SDS011;8207;52.494;4.654;2023-06-26T12:28:45;9.82;;;2.40;;
16199;SDS011;8207;52.494;4.654;2023-06-26T12:31:13;5.43;;;1.55;;
16199;SDS011;8207;52.494;4.654;2023-06-26T12:33:42;5.78;;;1.80;;
16199;SDS011;8207;52.494;4.654;2023-06-26T12:36:10;7.03;;;1.90;;
16199;SDS011;8207;52.494;4.654;2023-06-26T12:38:38;8.63;;;1.98;;
16199;SDS011;8207;52.494;4.654;2023-06-26T12:41:05;5.07;;;1.92;;
16199;SDS011;8207;52.494;4.654;2023-06-26T12:43:38;4.95;;;2.00;;
16199;SDS011;8207;52.494;4.654;2023-06-26T12:46:06;5.13;;;2.00;;
16199;SDS011;8207;52.494;4.654;2023-06-26T12:48:37;5.38;;;1.73;;
16199;SDS011;8207;52.494;4.654;2023-06-26T12:51:09;3.85;;;1.52;;
16199;SDS011;8207;52.494;4.654;2023-06-26T12:53:37;8.00;;;1.90;;
16199;SDS011;8207;52.494;4.654;2023-06-26T12:56:05;3.97;;;1.88;;
16199;SDS011;8207;52.494;4.654;2023-06-26T12:58:32;6.55;;;1.80;;
16199;SDS011;8207;52.494;4.654;2023-06-26T13:00:59;3.17;;;1.67;;
16199;SDS011;8207;52.494;4.654;2023-06-26T13:03:30;5.22;;;1.75;;
16199;SDS011;8207;52.494;4.654;2023-06-26T13:05:57;4.07;;;1.60;;
16199;SDS011;8207;52.494;4.654;2023-06-26T13:08:24;5.88;;;2.05;;
16199;SDS011;8207;52.494;4.654;2023-06-26T13:10:51;3.95;;;1.70;;
16199;SDS011;8207;52.494;4.654;2023-06-26T13:13:19;6.93;;;2.05;;
16199;SDS011;8207;52.494;4.654;2023-06-26T13:15:47;5.55;;;1.75;;
16199;SDS011;8207;52.494;4.654;2023-06-26T13:18:14;5.47;;;2.00;;
16199;SDS011;8207;52.494;4.654;2023-06-26T13:20:42;9.85;;;2.45;;
16199;SDS011;8207;52.494;4.654;2023-06-26T13:23:09;4.28;;;1.67;;
16199;SDS011;8207;52.494;4.654;2023-06-26T13:25:36;4.40;;;1.85;;
16199;SDS011;8207;52.494;4.654;2023-06-26T13:28:03;4.38;;;1.83;;
16199;SDS011;8207;52.494;4.654;2023-06-26T13:30:30;3.85;;;1.60;;
16199;SDS011;8207;52.494;4.654;2023-06-26T13:32:57;4.53;;;1.95;;
16199;SDS011;8207;52.494;4.654;2023-06-26T13:35:24;4.20;;;1.42;;
16199;SDS011;8207;52.494;4.654;2023-06-26T13:37:52;5.68;;;1.67;;
16199;SDS011;8207;52.494;4.654;2023-06-26T13:40:19;9.38;;;1.98;;
16199;SDS011;8207;52.494;4.654;2023-06-26T13:42:46;4.95;;;1.75;;
16199;SDS011;8207;52.494;4.654;2023-06-26T13:45:13;5.18;;;1.58;;
16199;SDS011;8207;52.494;4.654;2023-06-26T13:47:40;6.45;;;1.85;;
16199;SDS011;8207;52.494;4.654;2023-06-26T13:50:07;7.93;;;1.50;;
16199;SDS011;8207;52.494;4.654;2023-06-26T13:52:35;4.93;;;1.77;;
16199;SDS011;8207;52.494;4.654;2023-06-26T13:55:04;6.55;;;1.90;;
16199;SDS011;8207;52.494;4.654;2023-06-26T13:57:32;6.40;;;1.98;;
16199;SDS011;8207;52.494;4.654;2023-06-26T13:59:59;6.13;;;1.70;;
16199;SDS011;8207;52.494;4.654;2023-06-26T14:02:28;4.80;;;2.25;;
16199;SDS011;8207;52.494;4.654;2023-06-26T14:04:55;9.02;;;1.92;;
16199;SDS011;8207;52.494;4.654;2023-06-26T14:07:22;5.10;;;1.70;;
16199;SDS011;8207;52.494;4.654;2023-06-26T14:09:49;5.18;;;1.60;;
16199;SDS011;8207;52.494;4.654;2023-06-26T14:12:18;3.45;;;1.60;;
16199;SDS011;8207;52.494;4.654;2023-06-26T14:14:45;4.57;;;1.95;;
16199;SDS011;8207;52.494;4.654;2023-06-26T14:17:12;4.55;;;1.92;;
16199;SDS011;8207;52.494;4.654;2023-06-26T14:19:41;5.25;;;1.58;;
16199;SDS011;8207;52.494;4.654;2023-06-26T14:22:07;5.30;;;1.63;;
16199;SDS011;8207;52.494;4.654;2023-06-26T14:24:35;4.43;;;1.55;;
16199;SDS011;8207;52.494;4.654;2023-06-26T14:27:02;3.88;;;1.65;;
16199;SDS011;8207;52.494;4.654;2023-06-26T14:29:31;7.88;;;1.63;;
16199;SDS011;8207;52.494;4.654;2023-06-26T14:31:58;4.10;;;1.58;;
16199;SDS011;8207;52.494;4.654;2023-06-26T14:34:25;4.03;;;1.60;;
16199;SDS011;8207;52.494;4.654;2023-06-26T14:36:52;6.65;;;1.92;;
16199;SDS011;8207;52.494;4.654;2023-06-26T14:39:19;5.15;;;1.70;;
16199;SDS011;8207;52.494;4.654;2023-06-26T14:41:46;6.97;;;1.88;;
16199;SDS011;8207;52.494;4.654;2023-06-26T14:44:13;3.58;;;1.42;;
16199;SDS011;8207;52.494;4.654;2023-06-26T14:46:42;2.70;;;1.30;;
16199;SDS011;8207;52.494;4.654;2023-06-26T14:49:09;4.93;;;1.85;;
16199;SDS011;8207;52.494;4.654;2023-06-26T14:51:37;6.18;;;2.10;;
16199;SDS011;8207;52.494;4.654;2023-06-26T14:54:05;5.20;;;1.70;;
16199;SDS011;8207;52.494;4.654;2023-06-26T14:56:32;6.10;;;2.10;;
16199;SDS011;8207;52.494;4.654;2023-06-26T14:58:59;2.63;;;1.40;;
16199;SDS011;8207;52.494;4.654;2023-06-26T15:01:25;3.45;;;1.35;;
16199;SDS011;8207;52.494;4.654;2023-06-26T15:03:54;3.75;;;1.83;;
16199;SDS011;8207;52.494;4.654;2023-06-26T15:06:21;5.88;;;1.65;;